Satellite Precipitation Estimates (TXUS20 KWBC)
Issued by NWS

Home | Current Version | Previous Version | Text Only | Print | Product List | Glossary On
Versions: 1 2 3 4 5 6 7 8
603
SPTD31 TTPP 101316
SPECI
TTCP 101310Z 12010G35KT 9999 VCSH SCT012CB 28/23 Q1016=



USA.gov is the U.S. government's official web portal to all federal, state and local government web resources and services.